Merlin — WDD6426 — position and weather

sailwx.info

Track history (hours):
 
Tides and Currents Weather Stations Pressure Air Temp Water Temp Dewpoint Dewpoint Depression Visibility Wind Speed Wind Dir Waves Ship Positions

Merlin

Owner: Merlin Marine Corp., San Diego, CA. More information available from US FCC via Universal Licensing System and Coast Guard Vessel Documentation Center.

Last reported at 2018-Jun-20 21:54 UTC. Time now 2018-Jun-20 22:32 UTC.
Position N 33°09' W 118°43'.

Type: SAR. MMSI: 367409000.

Date/timePositionNaut miles runAvg speedWind from/ knotsBaromVisibWave heightAir tempDewpointWater temp
2018-Jun-20 21:54N 33°09' W 118°43'3 7.0
2018-Jun-20 21:30N 33°08' W 118°39'13 2.9
2018-Jun-20 16:56N 33°10' W 118°55'1 0.1
2018-Jun-19 23:40N 33°10' W 118°53'1 7.9
2018-Jun-19 23:30N 33°10' W 118°52'4 7.8
2018-Jun-19 23:00N 33°09' W 118°47'1 0.5
2018-Jun-19 21:07N 33°09' W 118°48'2 8.0
2018-Jun-19 20:48N 33°09' W 118°46'59 1.2
2018-Jun-17 20:17N 32°47' W 117°41'414.4
2018-Jun-17 20:01N 32°45' W 117°37'714.4
2018-Jun-17 19:31N 32°43' W 117°29'  
2018-Jun-15 04:57N 32°41' W 117°26'611.8
2018-Jun-15 04:28N 32°43' W 117°32'611.8
2018-Jun-15 04:00N 32°45' W 117°39'612.0
2018-Jun-15 03:28N 32°48' W 117°46'712.2
2018-Jun-15 02:52N 32°51' W 117°54'513.0
2018-Jun-15 02:30N 32°51' W 117°59'612.7
2018-Jun-15 02:00N 32°53' W 118°06'612.3
2018-Jun-15 01:30N 32°55' W 118°13'711.9
2018-Jun-15 00:56N 32°57' W 118°21'712.0
2018-Jun-15 00:21N 32°59' W 118°29'411.9
2018-Jun-15 00:00N 33°01' W 118°33'0 0.0
2018-Jun-14 07:54N 33°01' W 118°34'1 1.7
2018-Jun-14 07:30N 33°01' W 118°33'510.4
2018-Jun-14 07:00N 32°59' W 118°27'612.0
2018-Jun-14 06:30N 32°58' W 118°20'612.0
2018-Jun-14 05:59N 32°56' W 118°13'612.5
2018-Jun-14 05:30N 32°54' W 118°06'712.5
2018-Jun-14 04:59N 32°52' W 117°59'612.0
2018-Jun-14 04:29N 32°50' W 117°52'612.1
2018-Jun-14 04:00N 32°47' W 117°46'612.0
2018-Jun-14 03:30N 32°45' W 117°39'612.1
2018-Jun-14 03:00N 32°43' W 117°32'611.9
2018-Jun-14 02:30N 32°41' W 117°26'612.1
2018-Jun-14 01:59N 32°39' W 117°19'  
Track history (hours):
 
Tides and Currents Weather Stations Pressure Air Temp Water Temp Dewpoint Dewpoint Depression Visibility Wind Speed Wind Dir Waves Ship Positions

Merlin

Owner: Merlin Marine Corp., San Diego, CA. More information available from US FCC via Universal Licensing System and Coast Guard Vessel Documentation Center.

Last reported at 2018-Jun-20 21:54 UTC. Time now 2018-Jun-20 22:32 UTC.
Position N 33°09' W 118°43'.

Type: SAR. MMSI: 367409000.

Date/timePositionNaut miles runAvg speedWind from/ knotsBaromVisibWave heightAir tempDewpointWater temp
2018-Jun-20 21:54N 33°09' W 118°43'3 7.0
2018-Jun-20 21:30N 33°08' W 118°39'13 2.9
2018-Jun-20 16:56N 33°10' W 118°55'1 0.1
2018-Jun-19 23:40N 33°10' W 118°53'1 7.9
2018-Jun-19 23:30N 33°10' W 118°52'4 7.8
2018-Jun-19 23:00N 33°09' W 118°47'1 0.5
2018-Jun-19 21:07N 33°09' W 118°48'2 8.0
2018-Jun-19 20:48N 33°09' W 118°46'59 1.2
2018-Jun-17 20:17N 32°47' W 117°41'414.4
2018-Jun-17 20:01N 32°45' W 117°37'714.4
2018-Jun-17 19:31N 32°43' W 117°29'  
2018-Jun-15 04:57N 32°41' W 117°26'611.8
2018-Jun-15 04:28N 32°43' W 117°32'611.8
2018-Jun-15 04:00N 32°45' W 117°39'612.0
2018-Jun-15 03:28N 32°48' W 117°46'712.2
2018-Jun-15 02:52N 32°51' W 117°54'513.0
2018-Jun-15 02:30N 32°51' W 117°59'612.7
2018-Jun-15 02:00N 32°53' W 118°06'612.3
2018-Jun-15 01:30N 32°55' W 118°13'711.9
2018-Jun-15 00:56N 32°57' W 118°21'712.0
2018-Jun-15 00:21N 32°59' W 118°29'411.9
2018-Jun-15 00:00N 33°01' W 118°33'0 0.0
2018-Jun-14 07:54N 33°01' W 118°34'1 1.7
2018-Jun-14 07:30N 33°01' W 118°33'510.4
2018-Jun-14 07:00N 32°59' W 118°27'612.0
2018-Jun-14 06:30N 32°58' W 118°20'612.0
2018-Jun-14 05:59N 32°56' W 118°13'612.5
2018-Jun-14 05:30N 32°54' W 118°06'712.5
2018-Jun-14 04:59N 32°52' W 117°59'612.0
2018-Jun-14 04:29N 32°50' W 117°52'612.1
2018-Jun-14 04:00N 32°47' W 117°46'612.0
2018-Jun-14 03:30N 32°45' W 117°39'612.1
2018-Jun-14 03:00N 32°43' W 117°32'611.9
2018-Jun-14 02:30N 32°41' W 117°26'612.1
2018-Jun-14 01:59N 32°39' W 117°19'  

Dump ship's entire track history